sensor_id;sensor_type;location;lat;lon;timestamp;P1;durP1;ratioP1;P2;durP2;ratioP2
70138;SDS011;57507;43.056;0.150;2023-06-14T00:00:58;1.40;;;0.70;;
70138;SDS011;57507;43.056;0.150;2023-06-14T00:03:24;0.55;;;0.50;;
70138;SDS011;57507;43.056;0.150;2023-06-14T00:05:51;1.30;;;1.02;;
70138;SDS011;57507;43.056;0.150;2023-06-14T00:08:17;2.10;;;0.80;;
70138;SDS011;57507;43.056;0.150;2023-06-14T00:10:44;1.02;;;0.60;;
70138;SDS011;57507;43.056;0.150;2023-06-14T00:13:10;1.25;;;0.80;;
70138;SDS011;57507;43.056;0.150;2023-06-14T00:15:37;1.38;;;0.70;;
70138;SDS011;57507;43.056;0.150;2023-06-14T00:18:03;1.58;;;1.00;;
70138;SDS011;57507;43.056;0.150;2023-06-14T00:20:30;1.63;;;0.60;;
70138;SDS011;57507;43.056;0.150;2023-06-14T00:22:57;2.92;;;0.77;;
70138;SDS011;57507;43.056;0.150;2023-06-14T00:25:23;0.63;;;0.60;;
70138;SDS011;57507;43.056;0.150;2023-06-14T00:27:53;1.15;;;0.80;;
70138;SDS011;57507;43.056;0.150;2023-06-14T00:30:20;0.85;;;0.70;;
70138;SDS011;57507;43.056;0.150;2023-06-14T00:32:46;1.35;;;0.75;;
70138;SDS011;57507;43.056;0.150;2023-06-14T00:35:12;0.80;;;0.70;;
70138;SDS011;57507;43.056;0.150;2023-06-14T00:37:39;0.70;;;0.70;;
70138;SDS011;57507;43.056;0.150;2023-06-14T00:40:05;1.58;;;0.88;;
70138;SDS011;57507;43.056;0.150;2023-06-14T00:42:31;1.75;;;0.80;;
70138;SDS011;57507;43.056;0.150;2023-06-14T00:44:57;0.93;;;0.82;;
70138;SDS011;57507;43.056;0.150;2023-06-14T00:47:24;1.55;;;1.00;;
70138;SDS011;57507;43.056;0.150;2023-06-14T00:49:50;2.22;;;0.80;;
70138;SDS011;57507;43.056;0.150;2023-06-14T00:52:17;1.13;;;0.70;;
70138;SDS011;57507;43.056;0.150;2023-06-14T00:54:43;0.80;;;0.80;;
70138;SDS011;57507;43.056;0.150;2023-06-14T00:57:10;3.63;;;1.30;;
70138;SDS011;57507;43.056;0.150;2023-06-14T00:59:38;1.40;;;1.30;;
70138;SDS011;57507;43.056;0.150;2023-06-14T01:02:06;3.80;;;1.00;;
70138;SDS011;57507;43.056;0.150;2023-06-14T01:04:32;1.88;;;1.10;;
70138;SDS011;57507;43.056;0.150;2023-06-14T01:10:12;1.45;;;1.08;;
70138;SDS011;57507;43.056;0.150;2023-06-14T01:12:22;1.27;;;1.08;;
70138;SDS011;57507;43.056;0.150;2023-06-14T01:14:50;2.47;;;1.30;;
70138;SDS011;57507;43.056;0.150;2023-06-14T01:17:18;2.15;;;1.95;;
70138;SDS011;57507;43.056;0.150;2023-06-14T01:19:45;1.42;;;1.20;;
70138;SDS011;57507;43.056;0.150;2023-06-14T01:22:11;2.75;;;2.03;;
70138;SDS011;57507;43.056;0.150;2023-06-14T01:24:38;1.90;;;1.42;;
70138;SDS011;57507;43.056;0.150;2023-06-14T01:27:04;1.73;;;1.25;;
70138;SDS011;57507;43.056;0.150;2023-06-14T01:29:32;3.15;;;1.80;;
70138;SDS011;57507;43.056;0.150;2023-06-14T01:31:59;1.98;;;1.60;;
70138;SDS011;57507;43.056;0.150;2023-06-14T01:34:25;3.55;;;2.42;;
70138;SDS011;57507;43.056;0.150;2023-06-14T01:36:52;2.97;;;1.63;;
70138;SDS011;57507;43.056;0.150;2023-06-14T01:39:21;2.28;;;1.80;;
70138;SDS011;57507;43.056;0.150;2023-06-14T01:41:48;2.40;;;1.35;;
70138;SDS011;57507;43.056;0.150;2023-06-14T01:44:16;1.42;;;1.20;;
70138;SDS011;57507;43.056;0.150;2023-06-14T01:46:43;2.33;;;1.75;;
70138;SDS011;57507;43.056;0.150;2023-06-14T01:49:10;1.25;;;1.05;;
70138;SDS011;57507;43.056;0.150;2023-06-14T01:51:36;1.48;;;1.13;;
70138;SDS011;57507;43.056;0.150;2023-06-14T01:54:02;1.70;;;1.10;;
70138;SDS011;57507;43.056;0.150;2023-06-14T01:56:28;1.88;;;1.30;;
70138;SDS011;57507;43.056;0.150;2023-06-14T01:58:54;1.77;;;1.30;;
70138;SDS011;57507;43.056;0.150;2023-06-14T02:01:21;2.03;;;1.17;;
70138;SDS011;57507;43.056;0.150;2023-06-14T02:03:47;1.70;;;1.20;;
70138;SDS011;57507;43.056;0.150;2023-06-14T02:06:14;4.20;;;1.42;;
70138;SDS011;57507;43.056;0.150;2023-06-14T02:08:41;1.63;;;1.50;;
70138;SDS011;57507;43.056;0.150;2023-06-14T02:11:07;2.00;;;1.38;;
70138;SDS011;57507;43.056;0.150;2023-06-14T02:13:33;1.25;;;1.15;;
70138;SDS011;57507;43.056;0.150;2023-06-14T02:15:59;1.20;;;1.10;;
70138;SDS011;57507;43.056;0.150;2023-06-14T02:18:26;1.10;;;1.00;;
70138;SDS011;57507;43.056;0.150;2023-06-14T02:20:52;1.35;;;1.10;;
70138;SDS011;57507;43.056;0.150;2023-06-14T02:23:18;1.58;;;1.20;;
70138;SDS011;57507;43.056;0.150;2023-06-14T02:25:44;1.67;;;1.10;;
70138;SDS011;57507;43.056;0.150;2023-06-14T02:28:11;1.33;;;1.20;;
70138;SDS011;57507;43.056;0.150;2023-06-14T02:30:37;2.45;;;1.30;;
70138;SDS011;57507;43.056;0.150;2023-06-14T02:33:04;1.30;;;1.10;;
70138;SDS011;57507;43.056;0.150;2023-06-14T02:35:30;1.63;;;1.42;;
70138;SDS011;57507;43.056;0.150;2023-06-14T02:37:56;2.65;;;1.30;;
70138;SDS011;57507;43.056;0.150;2023-06-14T02:40:22;1.27;;;1.17;;
70138;SDS011;57507;43.056;0.150;2023-06-14T02:42:48;4.82;;;1.77;;
70138;SDS011;57507;43.056;0.150;2023-06-14T02:45:14;1.90;;;1.23;;
70138;SDS011;57507;43.056;0.150;2023-06-14T02:47:40;3.13;;;1.60;;
70138;SDS011;57507;43.056;0.150;2023-06-14T02:50:07;1.90;;;1.50;;
70138;SDS011;57507;43.056;0.150;2023-06-14T02:52:33;3.45;;;1.23;;
70138;SDS011;57507;43.056;0.150;2023-06-14T02:54:59;1.90;;;1.30;;
70138;SDS011;57507;43.056;0.150;2023-06-14T02:57:25;4.20;;;2.22;;
70138;SDS011;57507;43.056;0.150;2023-06-14T02:59:51;1.63;;;1.30;;
70138;SDS011;57507;43.056;0.150;2023-06-14T03:02:17;1.50;;;1.38;;
70138;SDS011;57507;43.056;0.150;2023-06-14T03:04:43;1.65;;;1.40;;
70138;SDS011;57507;43.056;0.150;2023-06-14T03:07:12;2.92;;;2.05;;
70138;SDS011;57507;43.056;0.150;2023-06-14T03:09:39;1.35;;;1.02;;
70138;SDS011;57507;43.056;0.150;2023-06-14T03:12:05;2.63;;;2.00;;
70138;SDS011;57507;43.056;0.150;2023-06-14T03:14:34;4.43;;;1.25;;
70138;SDS011;57507;43.056;0.150;2023-06-14T03:17:00;2.42;;;1.58;;
70138;SDS011;57507;43.056;0.150;2023-06-14T03:19:26;2.38;;;1.40;;
70138;SDS011;57507;43.056;0.150;2023-06-14T03:21:52;1.02;;;0.90;;
70138;SDS011;57507;43.056;0.150;2023-06-14T03:24:21;2.10;;;1.35;;
70138;SDS011;57507;43.056;0.150;2023-06-14T03:26:47;1.75;;;1.35;;
70138;SDS011;57507;43.056;0.150;2023-06-14T03:29:14;1.40;;;1.10;;
70138;SDS011;57507;43.056;0.150;2023-06-14T03:31:55;1.52;;;1.10;;
70138;SDS011;57507;43.056;0.150;2023-06-14T03:34:22;2.00;;;1.60;;
70138;SDS011;57507;43.056;0.150;2023-06-14T03:36:48;1.50;;;1.23;;
70138;SDS011;57507;43.056;0.150;2023-06-14T03:39:14;1.38;;;1.00;;
70138;SDS011;57507;43.056;0.150;2023-06-14T03:41:40;1.48;;;1.00;;
70138;SDS011;57507;43.056;0.150;2023-06-14T03:44:06;1.70;;;1.20;;
70138;SDS011;57507;43.056;0.150;2023-06-14T03:46:32;2.33;;;0.98;;
70138;SDS011;57507;43.056;0.150;2023-06-14T03:48:58;1.75;;;1.00;;
70138;SDS011;57507;43.056;0.150;2023-06-14T03:51:25;1.77;;;1.20;;
70138;SDS011;57507;43.056;0.150;2023-06-14T03:53:51;1.20;;;1.10;;
70138;SDS011;57507;43.056;0.150;2023-06-14T03:56:17;1.85;;;1.60;;
70138;SDS011;57507;43.056;0.150;2023-06-14T03:58:43;2.47;;;1.10;;
70138;SDS011;57507;43.056;0.150;2023-06-14T04:01:09;1.40;;;1.30;;
70138;SDS011;57507;43.056;0.150;2023-06-14T04:03:37;2.63;;;1.10;;
70138;SDS011;57507;43.056;0.150;2023-06-14T04:06:04;2.90;;;1.60;;
70138;SDS011;57507;43.056;0.150;2023-06-14T04:08:30;1.75;;;1.17;;
70138;SDS011;57507;43.056;0.150;2023-06-14T04:10:56;2.67;;;1.55;;
70138;SDS011;57507;43.056;0.150;2023-06-14T04:13:22;1.20;;;1.10;;
70138;SDS011;57507;43.056;0.150;2023-06-14T04:15:48;2.03;;;1.73;;
70138;SDS011;57507;43.056;0.150;2023-06-14T04:18:15;1.80;;;1.40;;
70138;SDS011;57507;43.056;0.150;2023-06-14T04:20:41;1.67;;;1.15;;
70138;SDS011;57507;43.056;0.150;2023-06-14T04:23:13;2.28;;;1.98;;
70138;SDS011;57507;43.056;0.150;2023-06-14T04:25:40;2.50;;;1.67;;
70138;SDS011;57507;43.056;0.150;2023-06-14T04:28:09;2.33;;;1.98;;
70138;SDS011;57507;43.056;0.150;2023-06-14T04:30:36;1.88;;;1.60;;
70138;SDS011;57507;43.056;0.150;2023-06-14T04:33:03;5.55;;;2.72;;
70138;SDS011;57507;43.056;0.150;2023-06-14T04:35:31;2.13;;;1.92;;
70138;SDS011;57507;43.056;0.150;2023-06-14T04:37:57;4.53;;;2.05;;
70138;SDS011;57507;43.056;0.150;2023-06-14T04:40:24;2.85;;;1.92;;
70138;SDS011;57507;43.056;0.150;2023-06-14T04:42:50;4.22;;;2.95;;
70138;SDS011;57507;43.056;0.150;2023-06-14T04:45:17;2.42;;;2.22;;
70138;SDS011;57507;43.056;0.150;2023-06-14T04:47:43;2.13;;;1.75;;
70138;SDS011;57507;43.056;0.150;2023-06-14T04:50:10;4.65;;;2.63;;
70138;SDS011;57507;43.056;0.150;2023-06-14T04:52:36;3.17;;;2.03;;
70138;SDS011;57507;43.056;0.150;2023-06-14T04:55:02;3.92;;;3.28;;
70138;SDS011;57507;43.056;0.150;2023-06-14T04:57:28;3.28;;;1.77;;
70138;SDS011;57507;43.056;0.150;2023-06-14T04:59:55;2.22;;;2.03;;
70138;SDS011;57507;43.056;0.150;2023-06-14T05:02:22;2.83;;;2.08;;
70138;SDS011;57507;43.056;0.150;2023-06-14T05:04:49;6.03;;;3.60;;
70138;SDS011;57507;43.056;0.150;2023-06-14T05:07:15;2.83;;;2.42;;
70138;SDS011;57507;43.056;0.150;2023-06-14T05:09:41;2.25;;;1.95;;
70138;SDS011;57507;43.056;0.150;2023-06-14T05:12:07;2.03;;;1.83;;
70138;SDS011;57507;43.056;0.150;2023-06-14T05:14:34;1.88;;;1.70;;
70138;SDS011;57507;43.056;0.150;2023-06-14T05:17:01;2.80;;;2.25;;
70138;SDS011;57507;43.056;0.150;2023-06-14T05:19:27;2.38;;;2.10;;
70138;SDS011;57507;43.056;0.150;2023-06-14T05:21:53;2.85;;;1.90;;
70138;SDS011;57507;43.056;0.150;2023-06-14T05:24:19;3.60;;;2.05;;
70138;SDS011;57507;43.056;0.150;2023-06-14T05:26:46;6.20;;;2.42;;
70138;SDS011;57507;43.056;0.150;2023-06-14T05:29:12;2.25;;;1.80;;
70138;SDS011;57507;43.056;0.150;2023-06-14T05:31:38;3.38;;;1.63;;
70138;SDS011;57507;43.056;0.150;2023-06-14T05:34:04;3.33;;;2.00;;
70138;SDS011;57507;43.056;0.150;2023-06-14T05:36:30;3.70;;;3.22;;
70138;SDS011;57507;43.056;0.150;2023-06-14T05:38:56;2.67;;;2.08;;
70138;SDS011;57507;43.056;0.150;2023-06-14T05:41:27;3.40;;;2.20;;
70138;SDS011;57507;43.056;0.150;2023-06-14T05:43:54;3.15;;;2.38;;
70138;SDS011;57507;43.056;0.150;2023-06-14T05:46:20;2.05;;;1.80;;
70138;SDS011;57507;43.056;0.150;2023-06-14T05:48:53;1.67;;;1.40;;
70138;SDS011;57507;43.056;0.150;2023-06-14T05:51:20;3.30;;;1.90;;
70138;SDS011;57507;43.056;0.150;2023-06-14T05:53:47;3.35;;;1.63;;
70138;SDS011;57507;43.056;0.150;2023-06-14T05:56:14;1.80;;;1.63;;
70138;SDS011;57507;43.056;0.150;2023-06-14T05:58:40;2.33;;;1.98;;
70138;SDS011;57507;43.056;0.150;2023-06-14T06:01:06;2.70;;;1.75;;
70138;SDS011;57507;43.056;0.150;2023-06-14T06:03:33;2.05;;;1.80;;
70138;SDS011;57507;43.056;0.150;2023-06-14T06:05:59;3.60;;;2.25;;
70138;SDS011;57507;43.056;0.150;2023-06-14T06:08:25;5.38;;;3.53;;
70138;SDS011;57507;43.056;0.150;2023-06-14T06:10:51;3.03;;;1.73;;
70138;SDS011;57507;43.056;0.150;2023-06-14T06:13:17;2.13;;;1.70;;
70138;SDS011;57507;43.056;0.150;2023-06-14T06:15:43;4.53;;;3.00;;
70138;SDS011;57507;43.056;0.150;2023-06-14T06:18:10;2.10;;;1.90;;
70138;SDS011;57507;43.056;0.150;2023-06-14T06:20:36;3.67;;;2.88;;
70138;SDS011;57507;43.056;0.150;2023-06-14T06:23:02;2.67;;;2.13;;
70138;SDS011;57507;43.056;0.150;2023-06-14T06:25:28;3.67;;;2.53;;
70138;SDS011;57507;43.056;0.150;2023-06-14T06:27:56;4.40;;;3.63;;
70138;SDS011;57507;43.056;0.150;2023-06-14T06:30:22;6.03;;;3.70;;
70138;SDS011;57507;43.056;0.150;2023-06-14T06:32:48;6.95;;;3.30;;
70138;SDS011;57507;43.056;0.150;2023-06-14T06:35:15;2.97;;;2.65;;
70138;SDS011;57507;43.056;0.150;2023-06-14T06:37:41;5.18;;;3.20;;
70138;SDS011;57507;43.056;0.150;2023-06-14T06:40:08;3.53;;;2.65;;
70138;SDS011;57507;43.056;0.150;2023-06-14T06:42:34;5.18;;;3.55;;
70138;SDS011;57507;43.056;0.150;2023-06-14T06:45:01;7.95;;;3.13;;
70138;SDS011;57507;43.056;0.150;2023-06-14T06:47:27;4.38;;;3.08;;
70138;SDS011;57507;43.056;0.150;2023-06-14T06:49:53;3.00;;;2.70;;
70138;SDS011;57507;43.056;0.150;2023-06-14T06:52:19;3.75;;;2.90;;
70138;SDS011;57507;43.056;0.150;2023-06-14T06:54:45;8.20;;;4.68;;
70138;SDS011;57507;43.056;0.150;2023-06-14T06:57:11;6.53;;;3.38;;
70138;SDS011;57507;43.056;0.150;2023-06-14T06:59:37;5.85;;;4.40;;
70138;SDS011;57507;43.056;0.150;2023-06-14T07:02:03;6.15;;;3.47;;
70138;SDS011;57507;43.056;0.150;2023-06-14T07:04:30;9.65;;;5.53;;
70138;SDS011;57507;43.056;0.150;2023-06-14T07:06:56;8.18;;;5.82;;
70138;SDS011;57507;43.056;0.150;2023-06-14T07:09:22;7.07;;;4.93;;
70138;SDS011;57507;43.056;0.150;2023-06-14T07:11:49;10.35;;;5.82;;
70138;SDS011;57507;43.056;0.150;2023-06-14T07:14:15;4.18;;;3.22;;
70138;SDS011;57507;43.056;0.150;2023-06-14T07:16:41;13.20;;;5.85;;
70138;SDS011;57507;43.056;0.150;2023-06-14T07:19:08;5.65;;;4.78;;
70138;SDS011;57507;43.056;0.150;2023-06-14T07:21:35;8.55;;;6.13;;
70138;SDS011;57507;43.056;0.150;2023-06-14T07:24:05;4.20;;;3.60;;
70138;SDS011;57507;43.056;0.150;2023-06-14T07:26:34;9.07;;;5.40;;
70138;SDS011;57507;43.056;0.150;2023-06-14T07:29:03;5.80;;;3.63;;
70138;SDS011;57507;43.056;0.150;2023-06-14T07:31:29;10.30;;;5.93;;
70138;SDS011;57507;43.056;0.150;2023-06-14T07:33:55;8.13;;;4.72;;
70138;SDS011;57507;43.056;0.150;2023-06-14T07:36:21;6.68;;;5.28;;
70138;SDS011;57507;43.056;0.150;2023-06-14T07:38:47;5.32;;;3.78;;
70138;SDS011;57507;43.056;0.150;2023-06-14T07:41:13;8.18;;;5.45;;
70138;SDS011;57507;43.056;0.150;2023-06-14T07:43:39;7.03;;;5.53;;
70138;SDS011;57507;43.056;0.150;2023-06-14T07:46:05;6.28;;;4.18;;
70138;SDS011;57507;43.056;0.150;2023-06-14T07:48:33;8.73;;;5.40;;
70138;SDS011;57507;43.056;0.150;2023-06-14T07:50:59;7.60;;;4.78;;
70138;SDS011;57507;43.056;0.150;2023-06-14T07:53:26;9.80;;;5.07;;
70138;SDS011;57507;43.056;0.150;2023-06-14T07:55:52;6.78;;;4.50;;
70138;SDS011;57507;43.056;0.150;2023-06-14T07:58:18;7.63;;;4.00;;
70138;SDS011;57507;43.056;0.150;2023-06-14T08:00:44;4.38;;;3.45;;
70138;SDS011;57507;43.056;0.150;2023-06-14T08:03:11;6.95;;;5.32;;
70138;SDS011;57507;43.056;0.150;2023-06-14T08:05:37;6.22;;;3.97;;
70138;SDS011;57507;43.056;0.150;2023-06-14T08:08:03;8.10;;;4.85;;
70138;SDS011;57507;43.056;0.150;2023-06-14T08:10:29;8.18;;;5.18;;
70138;SDS011;57507;43.056;0.150;2023-06-14T08:12:55;9.57;;;4.68;;
70138;SDS011;57507;43.056;0.150;2023-06-14T08:15:21;6.40;;;3.67;;
70138;SDS011;57507;43.056;0.150;2023-06-14T08:17:47;10.38;;;5.05;;
70138;SDS011;57507;43.056;0.150;2023-06-14T08:20:13;9.23;;;4.18;;
70138;SDS011;57507;43.056;0.150;2023-06-14T08:22:41;7.38;;;5.00;;
70138;SDS011;57507;43.056;0.150;2023-06-14T08:25:08;6.75;;;3.22;;
70138;SDS011;57507;43.056;0.150;2023-06-14T08:27:34;11.90;;;4.70;;
70138;SDS011;57507;43.056;0.150;2023-06-14T08:30:01;10.35;;;5.13;;
70138;SDS011;57507;43.056;0.150;2023-06-14T08:32:28;7.03;;;3.90;;
70138;SDS011;57507;43.056;0.150;2023-06-14T08:34:54;5.57;;;4.18;;
70138;SDS011;57507;43.056;0.150;2023-06-14T08:37:20;7.97;;;4.18;;
70138;SDS011;57507;43.056;0.150;2023-06-14T08:39:46;5.80;;;3.63;;
70138;SDS011;57507;43.056;0.150;2023-06-14T08:42:12;11.43;;;5.05;;
70138;SDS011;57507;43.056;0.150;2023-06-14T08:44:40;6.55;;;3.90;;
70138;SDS011;57507;43.056;0.150;2023-06-14T08:47:06;8.38;;;4.47;;
70138;SDS011;57507;43.056;0.150;2023-06-14T08:49:33;9.20;;;4.47;;
70138;SDS011;57507;43.056;0.150;2023-06-14T08:52:01;6.95;;;3.72;;
70138;SDS011;57507;43.056;0.150;2023-06-14T08:54:28;8.52;;;4.90;;
70138;SDS011;57507;43.056;0.150;2023-06-14T08:57:01;6.82;;;4.05;;
70138;SDS011;57507;43.056;0.150;2023-06-14T08:59:29;8.50;;;3.65;;
70138;SDS011;57507;43.056;0.150;2023-06-14T09:01:59;5.78;;;3.60;;
70138;SDS011;57507;43.056;0.150;2023-06-14T09:04:25;9.10;;;3.45;;
70138;SDS011;57507;43.056;0.150;2023-06-14T09:06:54;6.30;;;2.92;;
70138;SDS011;57507;43.056;0.150;2023-06-14T09:09:20;6.55;;;2.97;;
70138;SDS011;57507;43.056;0.150;2023-06-14T09:11:48;6.45;;;3.00;;
70138;SDS011;57507;43.056;0.150;2023-06-14T09:14:14;6.90;;;3.70;;
70138;SDS011;57507;43.056;0.150;2023-06-14T09:16:40;5.65;;;3.20;;
70138;SDS011;57507;43.056;0.150;2023-06-14T09:19:06;6.20;;;3.78;;
70138;SDS011;57507;43.056;0.150;2023-06-14T09:21:33;4.15;;;2.60;;
70138;SDS011;57507;43.056;0.150;2023-06-14T09:24:02;6.05;;;3.70;;
70138;SDS011;57507;43.056;0.150;2023-06-14T09:26:29;5.35;;;3.03;;
70138;SDS011;57507;43.056;0.150;2023-06-14T09:28:55;9.20;;;3.58;;
70138;SDS011;57507;43.056;0.150;2023-06-14T09:31:21;6.25;;;3.75;;
70138;SDS011;57507;43.056;0.150;2023-06-14T09:33:48;5.45;;;2.90;;
70138;SDS011;57507;43.056;0.150;2023-06-14T09:36:19;7.38;;;3.08;;
70138;SDS011;57507;43.056;0.150;2023-06-14T09:38:59;4.78;;;2.50;;
70138;SDS011;57507;43.056;0.150;2023-06-14T09:41:32;3.55;;;2.20;;
70138;SDS011;57507;43.056;0.150;2023-06-14T09:43:59;5.95;;;2.53;;
70138;SDS011;57507;43.056;0.150;2023-06-14T09:46:28;7.00;;;2.42;;
70138;SDS011;57507;43.056;0.150;2023-06-14T09:48:58;3.40;;;2.10;;
70138;SDS011;57507;43.056;0.150;2023-06-14T09:51:24;3.22;;;1.80;;
70138;SDS011;57507;43.056;0.150;2023-06-14T09:53:51;2.30;;;1.70;;
70138;SDS011;57507;43.056;0.150;2023-06-14T09:56:28;2.60;;;1.45;;
70138;SDS011;57507;43.056;0.150;2023-06-14T09:58:58;3.08;;;1.38;;
70138;SDS011;57507;43.056;0.150;2023-06-14T10:01:25;3.13;;;1.58;;
70138;SDS011;57507;43.056;0.150;2023-06-14T10:03:55;2.63;;;1.50;;
70138;SDS011;57507;43.056;0.150;2023-06-14T10:06:22;2.80;;;1.40;;
70138;SDS011;57507;43.056;0.150;2023-06-14T10:08:50;5.50;;;1.88;;
70138;SDS011;57507;43.056;0.150;2023-06-14T10:11:17;2.20;;;1.30;;
70138;SDS011;57507;43.056;0.150;2023-06-14T10:13:43;2.78;;;1.27;;
70138;SDS011;57507;43.056;0.150;2023-06-14T10:16:13;2.65;;;1.60;;
70138;SDS011;57507;43.056;0.150;2023-06-14T10:18:58;2.92;;;1.65;;
70138;SDS011;57507;43.056;0.150;2023-06-14T10:21:28;2.75;;;1.55;;
70138;SDS011;57507;43.056;0.150;2023-06-14T10:23:59;4.00;;;1.27;;
70138;SDS011;57507;43.056;0.150;2023-06-14T10:26:27;3.17;;;1.10;;
70138;SDS011;57507;43.056;0.150;2023-06-14T10:28:59;2.75;;;1.30;;
70138;SDS011;57507;43.056;0.150;2023-06-14T10:34:11;3.70;;;0.95;;
70138;SDS011;57507;43.056;0.150;2023-06-14T10:36:40;4.07;;;1.33;;
70138;SDS011;57507;43.056;0.150;2023-06-14T10:39:08;1.55;;;1.10;;
70138;SDS011;57507;43.056;0.150;2023-06-14T10:41:35;2.95;;;1.20;;
70138;SDS011;57507;43.056;0.150;2023-06-14T10:46:39;1.90;;;1.30;;
70138;SDS011;57507;43.056;0.150;2023-06-14T10:49:06;2.15;;;1.40;;
70138;SDS011;57507;43.056;0.150;2023-06-14T10:51:44;1.60;;;1.40;;
70138;SDS011;57507;43.056;0.150;2023-06-14T10:54:17;3.00;;;1.60;;
70138;SDS011;57507;43.056;0.150;2023-06-14T10:56:46;3.15;;;1.50;;
70138;SDS011;57507;43.056;0.150;2023-06-14T10:59:13;3.28;;;1.50;;
70138;SDS011;57507;43.056;0.150;2023-06-14T11:02:00;1.45;;;1.30;;
70138;SDS011;57507;43.056;0.150;2023-06-14T11:04:39;2.25;;;1.45;;
70138;SDS011;57507;43.056;0.150;2023-06-14T11:07:38;2.03;;;1.27;;
70138;SDS011;57507;43.056;0.150;2023-06-14T11:12:42;3.55;;;1.77;;
70138;SDS011;57507;43.056;0.150;2023-06-14T11:15:11;2.63;;;1.20;;
70138;SDS011;57507;43.056;0.150;2023-06-14T11:17:37;2.10;;;1.50;;
70138;SDS011;57507;43.056;0.150;2023-06-14T11:20:12;2.25;;;1.35;;
70138;SDS011;57507;43.056;0.150;2023-06-14T11:22:42;3.15;;;1.55;;
70138;SDS011;57507;43.056;0.150;2023-06-14T11:25:08;2.03;;;1.40;;
70138;SDS011;57507;43.056;0.150;2023-06-14T11:27:35;2.10;;;1.58;;
70138;SDS011;57507;43.056;0.150;2023-06-14T11:30:01;1.58;;;1.15;;
70138;SDS011;57507;43.056;0.150;2023-06-14T11:32:27;2.03;;;1.33;;
70138;SDS011;57507;43.056;0.150;2023-06-14T11:34:53;1.92;;;1.38;;
70138;SDS011;57507;43.056;0.150;2023-06-14T11:37:19;2.72;;;1.40;;
70138;SDS011;57507;43.056;0.150;2023-06-14T11:39:46;2.85;;;1.58;;
70138;SDS011;57507;43.056;0.150;2023-06-14T11:42:15;3.08;;;1.20;;
70138;SDS011;57507;43.056;0.150;2023-06-14T11:44:41;2.67;;;1.08;;
70138;SDS011;57507;43.056;0.150;2023-06-14T11:47:07;3.38;;;1.60;;
70138;SDS011;57507;43.056;0.150;2023-06-14T11:49:36;3.20;;;1.58;;
70138;SDS011;57507;43.056;0.150;2023-06-14T11:52:02;2.58;;;1.35;;
70138;SDS011;57507;43.056;0.150;2023-06-14T11:54:28;3.83;;;1.77;;
70138;SDS011;57507;43.056;0.150;2023-06-14T11:56:54;1.92;;;1.30;;
70138;SDS011;57507;43.056;0.150;2023-06-14T11:59:20;1.60;;;1.23;;
70138;SDS011;57507;43.056;0.150;2023-06-14T12:01:47;3.97;;;2.35;;
70138;SDS011;57507;43.056;0.150;2023-06-14T12:04:13;1.90;;;1.50;;
70138;SDS011;57507;43.056;0.150;2023-06-14T12:06:39;2.83;;;1.90;;
70138;SDS011;57507;43.056;0.150;2023-06-14T12:09:06;3.80;;;2.20;;
70138;SDS011;57507;43.056;0.150;2023-06-14T12:11:37;2.67;;;1.70;;
70138;SDS011;57507;43.056;0.150;2023-06-14T12:14:07;2.53;;;1.80;;
70138;SDS011;57507;43.056;0.150;2023-06-14T12:16:34;2.40;;;1.35;;
70138;SDS011;57507;43.056;0.150;2023-06-14T12:19:07;1.73;;;1.30;;
70138;SDS011;57507;43.056;0.150;2023-06-14T12:21:36;2.60;;;1.17;;
70138;SDS011;57507;43.056;0.150;2023-06-14T12:24:03;2.15;;;1.27;;
70138;SDS011;57507;43.056;0.150;2023-06-14T12:26:31;1.58;;;1.13;;
70138;SDS011;57507;43.056;0.150;2023-06-14T12:28:58;2.08;;;1.50;;
70138;SDS011;57507;43.056;0.150;2023-06-14T12:31:24;1.38;;;1.20;;
70138;SDS011;57507;43.056;0.150;2023-06-14T12:33:51;3.65;;;1.40;;
70138;SDS011;57507;43.056;0.150;2023-06-14T12:36:17;2.55;;;1.20;;
70138;SDS011;57507;43.056;0.150;2023-06-14T12:38:45;2.67;;;1.20;;
70138;SDS011;57507;43.056;0.150;2023-06-14T12:41:11;3.50;;;1.65;;
70138;SDS011;57507;43.056;0.150;2023-06-14T12:43:39;4.68;;;1.23;;
70138;SDS011;57507;43.056;0.150;2023-06-14T12:46:06;2.53;;;1.40;;
70138;SDS011;57507;43.056;0.150;2023-06-14T12:48:32;1.77;;;1.60;;
70138;SDS011;57507;43.056;0.150;2023-06-14T12:50:59;2.60;;;1.35;;
70138;SDS011;57507;43.056;0.150;2023-06-14T12:53:25;2.38;;;1.30;;
70138;SDS011;57507;43.056;0.150;2023-06-14T12:55:51;3.33;;;1.58;;
70138;SDS011;57507;43.056;0.150;2023-06-14T12:58:17;2.33;;;1.48;;
70138;SDS011;57507;43.056;0.150;2023-06-14T13:00:44;1.50;;;1.10;;
70138;SDS011;57507;43.056;0.150;2023-06-14T13:03:10;3.65;;;2.00;;
70138;SDS011;57507;43.056;0.150;2023-06-14T13:05:36;1.75;;;1.50;;
70138;SDS011;57507;43.056;0.150;2023-06-14T13:08:06;2.40;;;2.08;;
70138;SDS011;57507;43.056;0.150;2023-06-14T13:10:33;4.13;;;1.38;;
70138;SDS011;57507;43.056;0.150;2023-06-14T13:12:59;2.63;;;1.25;;
70138;SDS011;57507;43.056;0.150;2023-06-14T13:15:26;2.10;;;1.23;;
70138;SDS011;57507;43.056;0.150;2023-06-14T13:17:52;2.38;;;1.77;;
70138;SDS011;57507;43.056;0.150;2023-06-14T13:20:18;2.92;;;1.17;;
70138;SDS011;57507;43.056;0.150;2023-06-14T13:22:44;1.58;;;1.30;;
70138;SDS011;57507;43.056;0.150;2023-06-14T13:25:10;1.67;;;1.10;;
70138;SDS011;57507;43.056;0.150;2023-06-14T13:27:37;2.53;;;1.23;;
70138;SDS011;57507;43.056;0.150;2023-06-14T13:30:03;2.60;;;1.17;;
70138;SDS011;57507;43.056;0.150;2023-06-14T13:32:30;1.25;;;0.93;;
70138;SDS011;57507;43.056;0.150;2023-06-14T13:34:56;1.42;;;0.95;;
70138;SDS011;57507;43.056;0.150;2023-06-14T13:37:22;2.17;;;1.10;;
70138;SDS011;57507;43.056;0.150;2023-06-14T13:39:49;1.52;;;1.20;;
70138;SDS011;57507;43.056;0.150;2023-06-14T13:42:15;1.92;;;1.27;;
70138;SDS011;57507;43.056;0.150;2023-06-14T13:44:41;3.38;;;1.38;;
70138;SDS011;57507;43.056;0.150;2023-06-14T13:47:07;2.55;;;1.20;;
70138;SDS011;57507;43.056;0.150;2023-06-14T13:49:33;2.17;;;1.30;;
70138;SDS011;57507;43.056;0.150;2023-06-14T13:52:00;1.83;;;1.30;;
70138;SDS011;57507;43.056;0.150;2023-06-14T13:54:26;3.05;;;1.63;;
70138;SDS011;57507;43.056;0.150;2023-06-14T13:56:52;1.50;;;1.00;;
70138;SDS011;57507;43.056;0.150;2023-06-14T13:59:19;2.70;;;2.10;;
70138;SDS011;57507;43.056;0.150;2023-06-14T14:01:45;2.42;;;1.40;;
70138;SDS011;57507;43.056;0.150;2023-06-14T14:04:12;2.13;;;1.92;;
70138;SDS011;57507;43.056;0.150;2023-06-14T14:06:38;3.17;;;1.85;;
70138;SDS011;57507;43.056;0.150;2023-06-14T14:09:04;4.10;;;2.25;;
70138;SDS011;57507;43.056;0.150;2023-06-14T14:11:30;2.42;;;1.95;;
70138;SDS011;57507;43.056;0.150;2023-06-14T14:13:58;3.35;;;2.20;;
70138;SDS011;57507;43.056;0.150;2023-06-14T14:16:24;4.45;;;1.98;;
70138;SDS011;57507;43.056;0.150;2023-06-14T14:18:50;2.30;;;1.67;;
70138;SDS011;57507;43.056;0.150;2023-06-14T14:21:16;1.80;;;1.50;;
70138;SDS011;57507;43.056;0.150;2023-06-14T14:23:42;2.80;;;2.22;;
70138;SDS011;57507;43.056;0.150;2023-06-14T14:26:10;3.13;;;1.98;;
70138;SDS011;57507;43.056;0.150;2023-06-14T14:28:36;5.68;;;2.40;;
70138;SDS011;57507;43.056;0.150;2023-06-14T14:31:02;2.50;;;1.95;;
70138;SDS011;57507;43.056;0.150;2023-06-14T14:33:28;3.92;;;2.10;;
70138;SDS011;57507;43.056;0.150;2023-06-14T14:35:54;3.03;;;2.40;;
70138;SDS011;57507;43.056;0.150;2023-06-14T14:38:20;4.97;;;2.17;;
70138;SDS011;57507;43.056;0.150;2023-06-14T14:40:46;2.97;;;1.90;;
70138;SDS011;57507;43.056;0.150;2023-06-14T14:43:13;2.55;;;2.08;;
70138;SDS011;57507;43.056;0.150;2023-06-14T14:45:39;2.97;;;2.33;;
70138;SDS011;57507;43.056;0.150;2023-06-14T14:48:05;2.60;;;1.98;;
70138;SDS011;57507;43.056;0.150;2023-06-14T14:50:32;6.50;;;2.30;;
70138;SDS011;57507;43.056;0.150;2023-06-14T14:52:58;3.42;;;2.47;;
70138;SDS011;57507;43.056;0.150;2023-06-14T14:55:24;2.42;;;1.58;;
70138;SDS011;57507;43.056;0.150;2023-06-14T14:57:50;2.00;;;1.80;;